アピア の空港の天気 - METARとTAF

ファレオロ国際空港(サモア) ( NSFA / APW ) - サモア アピア
飛行場実況気象(Metar)
観測時間10/16 07:00 WSDT (10/15 17:00 UTC)
風向・風速東南東 2m/s
視程10km以上
天気現象
少しの雲 雲底高度 670m
全天の4割程度の雲 雲底高度 9140m
気温23℃
湿度94%
気圧1010hPa
METARNSFA 151700Z 12003KT 9999 FEW022 SCT300 23/22 Q1010 NOSIG
過去の天気等 Google飛行場航空写真 Wunderground天気予報

過去48時間のMETAR

飛行場予報(TAF)
発表時間: 10/16 07:15 WSDT (10/15 17:15 UTC)
予報対象時間: 16日8時 WSDT ~ 17日8時 WSDT
風向・風速東南東 3m/s
視程10km以上
全天の4割程度の雲 雲底高度 550m
全天の4割程度の雲 雲底高度 1370m
16日14時 WSDT ~ 17日2時 WSDT に 確率 30% で一時的に
視程5000m
天気現象雷雨
少しの積乱雲 雲底高度 550m
TAF NSFA 151715Z 1518/1618 12006KT 9999 SCT018 SCT045
PROB30 TEMPO 1600/1612 5000 TSRA FEW018CB